Time;durP1;ratioP1;P1;durP2;ratioP2;P2;SDS_P1;SDS_P2;PMS_P1;PMS_P2;Temp;Humidity;BMP_temperature;BMP_pressure;BME280_temperature;BME280_humidity;BME280_pressure;Samples;Min_cycle;Max_cycle;Signal;HPM_P1;HPM_P2
2023/05/20 00:00:45;;;;;;;9.07;5.57;;;18.10;52.00;;;;;;4959733;28;20039;-82
2023/05/20 00:03:10;;;;;;;9.60;5.80;;;18.10;52.10;;;;;;4957602;28;20131;-82
2023/05/20 00:05:36;;;;;;;12.52;6.28;;;18.10;52.10;;;;;;4968726;28;20087;-83
2023/05/20 00:08:06;;;;;;;9.30;5.80;;;18.10;52.30;;;;;;4955195;28;20039;-80
2023/05/20 00:10:32;;;;;;;12.40;6.20;;;18.00;52.20;;;;;;4957310;28;20058;-81
2023/05/20 00:12:58;;;;;;;8.40;5.55;;;18.00;52.30;;;;;;4950905;28;20470;-81
2023/05/20 00:15:24;;;;;;;10.38;6.10;;;18.00;52.30;;;;;;4956046;28;20035;-83
2023/05/20 00:17:49;;;;;;;8.07;5.50;;;17.90;52.30;;;;;;4956703;28;20045;-80
2023/05/20 00:20:15;;;;;;;11.23;6.20;;;17.90;52.30;;;;;;4960443;28;20034;-81
2023/05/20 00:22:41;;;;;;;10.95;5.82;;;17.90;52.40;;;;;;4960703;28;20046;-81
2023/05/20 00:25:08;;;;;;;9.55;5.90;;;17.90;52.50;;;;;;4958893;28;20106;-81
2023/05/20 00:27:34;;;;;;;9.77;5.75;;;17.80;52.30;;;;;;4953323;28;20461;-81
2023/05/20 00:30:01;;;;;;;10.60;5.68;;;17.80;52.40;;;;;;4964205;28;20035;-81
2023/05/20 00:32:27;;;;;;;10.45;5.53;;;17.80;52.50;;;;;;4937116;28;20039;-81
2023/05/20 00:34:57;;;;;;;12.48;5.82;;;17.70;52.40;;;;;;4955710;28;20065;-81
2023/05/20 00:37:24;;;;;;;10.70;6.07;;;17.70;52.60;;;;;;4970752;28;20399;-81
2023/05/20 00:39:53;;;;;;;14.25;6.03;;;17.70;52.60;;;;;;4954923;28;20027;-82
2023/05/20 00:42:20;;;;;;;9.73;6.63;;;17.60;52.50;;;;;;4964260;28;20046;-82
2023/05/20 00:44:47;;;;;;;10.48;5.72;;;17.60;52.60;;;;;;4965574;28;20486;-81
2023/05/20 00:47:18;;;;;;;13.20;5.40;;;17.60;52.70;;;;;;4958593;28;20053;-81
2023/05/20 00:49:50;;;;;;;13.55;6.68;;;17.50;52.60;;;;;;4966669;28;20045;-81
2023/05/20 00:52:21;;;;;;;10.95;6.30;;;17.50;52.80;;;;;;4961728;28;20242;-82
2023/05/20 00:54:49;;;;;;;11.65;5.70;;;17.40;52.70;;;;;;4960939;28;20042;-81
2023/05/20 00:57:18;;;;;;;10.38;5.78;;;17.40;52.70;;;;;;4959469;28;20089;-81
2023/05/20 00:59:44;;;;;;;12.68;6.35;;;17.40;52.80;;;;;;4961475;28;20386;-81
2023/05/20 01:02:10;;;;;;;10.13;6.07;;;17.40;52.90;;;;;;4965305;28;20124;-81
2023/05/20 01:04:36;;;;;;;10.85;5.93;;;17.30;52.80;;;;;;4967236;28;20038;-81
2023/05/20 01:07:05;;;;;;;11.60;5.88;;;17.30;52.90;;;;;;4960324;28;20467;-81
2023/05/20 01:09:32;;;;;;;10.32;6.00;;;17.30;53.00;;;;;;4955204;28;20049;-82
2023/05/20 01:12:09;;;;;;;12.65;6.15;;;17.30;53.10;;;;;;4951681;28;20110;-80
2023/05/20 01:14:42;;;;;;;13.55;7.38;;;17.20;53.00;;;;;;4954304;28;20027;-80
2023/05/20 01:17:11;;;;;;;13.23;6.88;;;17.20;53.00;;;;;;4959345;28;20043;-80
2023/05/20 01:19:43;;;;;;;11.73;7.05;;;17.20;53.30;;;;;;4955078;28;20054;-80
2023/05/20 01:22:12;;;;;;;9.02;6.07;;;17.10;53.60;;;;;;4957284;28;20069;-79
2023/05/20 01:24:44;;;;;;;12.00;6.38;;;17.10;53.00;;;;;;4957560;28;20065;-80
2023/05/20 01:27:12;;;;;;;16.48;7.53;;;17.10;53.10;;;;;;4953195;28;20314;-81
2023/05/20 01:29:44;;;;;;;11.25;6.88;;;17.10;53.20;;;;;;4956176;28;20066;-82
2023/05/20 01:32:23;;;;;;;9.82;7.10;;;17.00;53.00;;;;;;4959111;28;20109;-80
2023/05/20 01:34:51;;;;;;;12.15;7.50;;;17.00;53.20;;;;;;4956796;28;20113;-80
2023/05/20 01:37:21;;;;;;;9.85;6.05;;;17.00;53.20;;;;;;4959448;28;20534;-81
2023/05/20 01:39:49;;;;;;;11.73;7.72;;;16.90;53.20;;;;;;4959368;28;20062;-81
2023/05/20 01:42:16;;;;;;;14.45;7.93;;;16.90;53.20;;;;;;4960245;28;20037;-81
2023/05/20 01:44:42;;;;;;;11.85;6.65;;;16.90;53.30;;;;;;4977198;28;20042;-81
2023/05/20 01:47:08;;;;;;;10.80;7.28;;;16.80;53.20;;;;;;4967518;28;20126;-81
2023/05/20 01:49:35;;;;;;;10.95;6.00;;;16.80;53.30;;;;;;4970211;28;20047;-80
2023/05/20 01:52:01;;;;;;;10.57;6.35;;;16.70;53.20;;;;;;4974303;28;20042;-80
2023/05/20 01:54:36;;;;;;;10.88;7.32;;;16.70;53.30;;;;;;4966665;28;20035;-80
2023/05/20 01:57:02;;;;;;;13.25;7.20;;;16.70;53.30;;;;;;4966584;28;20062;-79
2023/05/20 01:59:28;;;;;;;11.38;6.90;;;16.70;53.40;;;;;;4963802;28;20035;-79
2023/05/20 02:01:54;;;;;;;13.07;7.88;;;16.60;53.30;;;;;;4963757;28;20528;-79
2023/05/20 02:04:21;;;;;;;11.75;7.07;;;16.60;53.40;;;;;;4970283;28;20486;-80
2023/05/20 02:06:47;;;;;;;9.40;6.93;;;16.50;53.30;;;;;;4965111;28;20038;-80
2023/05/20 02:09:14;;;;;;;12.45;7.13;;;16.50;53.40;;;;;;4964356;28;20122;-80
2023/05/20 02:11:40;;;;;;;9.80;6.10;;;16.50;53.40;;;;;;4970959;28;20625;-81
2023/05/20 02:14:06;;;;;;;9.88;6.68;;;16.50;53.40;;;;;;4968940;28;20288;-81
2023/05/20 02:16:32;;;;;;;10.60;5.57;;;16.40;53.30;;;;;;4963662;28;20205;-82
2023/05/20 02:18:58;;;;;;;9.35;6.82;;;16.40;53.30;;;;;;4955720;28;20125;-83
2023/05/20 02:21:24;;;;;;;11.85;7.28;;;16.40;53.30;;;;;;4980183;28;20126;-82
2023/05/20 02:23:50;;;;;;;10.65;6.95;;;16.30;53.10;;;;;;4974942;28;20033;-82
2023/05/20 02:26:16;;;;;;;10.90;7.30;;;16.30;53.10;;;;;;4975263;28;20035;-82
2023/05/20 02:28:45;;;;;;;9.05;6.88;;;16.20;52.90;;;;;;4964924;28;20034;-82
2023/05/20 02:31:12;;;;;;;8.88;6.28;;;16.20;52.90;;;;;;4966401;28;20534;-82
2023/05/20 02:33:38;;;;;;;8.80;6.72;;;16.20;52.90;;;;;;4971957;28;20282;-82
2023/05/20 02:36:04;;;;;;;8.55;6.20;;;16.10;52.70;;;;;;4966655;28;20042;-82
2023/05/20 02:38:31;;;;;;;10.07;6.07;;;16.10;52.70;;;;;;4960391;28;20258;-82
2023/05/20 02:40:58;;;;;;;7.25;6.38;;;16.00;52.60;;;;;;4987224;28;20314;-82
2023/05/20 02:43:25;;;;;;;8.68;6.43;;;16.00;52.60;;;;;;4974821;28;20057;-82
2023/05/20 02:45:52;;;;;;;6.65;5.38;;;16.00;52.60;;;;;;4974610;28;20045;-81
2023/05/20 02:48:18;;;;;;;12.25;6.55;;;15.90;52.40;;;;;;4975768;28;20031;-81
2023/05/20 02:50:45;;;;;;;8.90;5.43;;;15.80;52.30;;;;;;4982490;28;20027;-81
2023/05/20 02:53:11;;;;;;;9.70;5.75;;;15.80;52.30;;;;;;4972267;28;20089;-82
2023/05/20 02:55:39;;;;;;;7.25;5.60;;;15.80;52.40;;;;;;4968722;28;20069;-80
2023/05/20 02:58:06;;;;;;;6.10;5.25;;;15.70;52.20;;;;;;4968222;28;20038;-79
2023/05/20 03:00:39;;;;;;;7.55;5.72;;;15.70;52.20;;;;;;4967759;28;20054;-82
2023/05/20 03:03:06;;;;;;;9.20;5.15;;;15.70;52.20;;;;;;4965250;28;20038;-81
2023/05/20 03:05:36;;;;;;;7.47;5.35;;;15.60;52.10;;;;;;4967783;28;20498;-81
2023/05/20 03:08:09;;;;;;;8.15;5.80;;;15.60;52.10;;;;;;4968570;28;20045;-80
2023/05/20 03:10:37;;;;;;;7.32;5.43;;;15.50;52.00;;;;;;4973383;28;20053;-80
2023/05/20 03:13:09;;;;;;;8.68;6.10;;;15.40;51.80;;;;;;4945716;28;20069;-80
2023/05/20 03:15:37;;;;;;;7.65;5.47;;;15.40;51.80;;;;;;4974510;28;20520;-81
2023/05/20 03:18:04;;;;;;;6.38;4.40;;;15.40;51.90;;;;;;4975842;28;20038;-81
2023/05/20 03:20:37;;;;;;;7.60;5.20;;;15.30;51.70;;;;;;4973879;28;20068;-81
2023/05/20 03:23:04;;;;;;;7.25;4.88;;;15.30;51.70;;;;;;4981630;28;20026;-80
2023/05/20 03:25:31;;;;;;;8.15;5.30;;;15.30;51.80;;;;;;4976283;28;20122;-80
2023/05/20 03:27:58;;;;;;;8.68;4.82;;;15.20;51.60;;;;;;4961633;28;20617;-81
2023/05/20 03:30:27;;;;;;;8.18;6.13;;;15.20;51.70;;;;;;4965713;28;20035;-80
2023/05/20 03:32:56;;;;;;;7.05;4.65;;;15.10;51.50;;;;;;4959935;28;20399;-81
2023/05/20 03:35:22;;;;;;;8.82;4.82;;;15.10;51.60;;;;;;4983039;28;20042;-81
2023/05/20 03:37:50;;;;;;;5.60;4.43;;;15.00;51.40;;;;;;4969360;28;20030;-80
2023/05/20 03:40:17;;;;;;;5.85;4.95;;;15.00;51.50;;;;;;4991833;28;20276;-80
2023/05/20 03:42:44;;;;;;;7.18;5.93;;;14.90;51.40;;;;;;4963861;28;20170;-81
2023/05/20 03:45:12;;;;;;;6.53;4.65;;;14.90;51.40;;;;;;4965971;28;20043;-80
2023/05/20 03:47:46;;;;;;;5.85;4.53;;;14.80;51.30;;;;;;4977725;28;20051;-81
2023/05/20 03:50:12;;;;;;;5.85;4.78;;;14.80;51.40;;;;;;4967193;28;20038;-80
2023/05/20 03:52:39;;;;;;;6.10;4.80;;;14.70;51.20;;;;;;4970914;28;20297;-79
2023/05/20 03:55:06;;;;;;;5.43;4.82;;;14.70;51.30;;;;;;4980862;28;20069;-79
2023/05/20 03:57:32;;;;;;;7.18;5.25;;;14.60;51.20;;;;;;4967438;28;20047;-80
2023/05/20 04:00:01;;;;;;;7.13;4.78;;;14.60;51.30;;;;;;4981215;28;20126;-81
2023/05/20 04:02:29;;;;;;;8.18;5.20;;;14.50;51.10;;;;;;4965773;28;20049;-78
2023/05/20 04:04:56;;;;;;;7.10;5.07;;;14.50;51.20;;;;;;4984524;28;20018;-81
2023/05/20 04:07:23;;;;;;;7.20;4.75;;;14.40;51.10;;;;;;4960309;28;20451;-81
2023/05/20 04:09:49;;;;;;;6.63;4.82;;;14.40;51.10;;;;;;4983903;28;20493;-81
2023/05/20 04:12:18;;;;;;;5.75;4.60;;;14.40;51.20;;;;;;4978243;28;20449;-81
2023/05/20 04:14:44;;;;;;;6.32;5.07;;;14.30;51.00;;;;;;4999489;28;20252;-81
2023/05/20 04:17:10;;;;;;;12.55;6.13;;;14.30;51.10;;;;;;4965632;28;20042;-81
2023/05/20 04:19:37;;;;;;;8.55;5.53;;;14.30;51.10;;;;;;4975468;28;20529;-81
2023/05/20 04:22:03;;;;;;;8.70;6.40;;;14.30;51.10;;;;;;4976516;28;20062;-81
2023/05/20 04:24:30;;;;;;;7.07;5.53;;;14.20;51.00;;;;;;4980434;28;20081;-81
2023/05/20 04:26:56;;;;;;;9.95;6.03;;;14.20;51.00;;;;;;4964450;28;20042;-81
2023/05/20 04:29:22;;;;;;;10.90;5.53;;;14.20;51.00;;;;;;4983289;28;20044;-81
2023/05/20 04:31:48;;;;;;;7.32;5.80;;;14.20;51.10;;;;;;4969070;28;20047;-79
2023/05/20 04:34:18;;;;;;;9.43;6.75;;;14.20;51.10;;;;;;4980722;28;20036;-79
2023/05/20 04:36:44;;;;;;;9.07;6.47;;;14.20;51.10;;;;;;4972472;28;20038;-79
2023/05/20 04:39:12;;;;;;;9.68;6.85;;;14.20;51.20;;;;;;4962238;28;20062;-79
2023/05/20 04:41:39;;;;;;;8.40;6.50;;;14.20;51.20;;;;;;4965564;28;20518;-80
2023/05/20 04:44:06;;;;;;;8.50;6.18;;;14.20;51.20;;;;;;4964192;28;20676;-80
2023/05/20 04:46:32;;;;;;;8.10;6.93;;;14.20;51.20;;;;;;4966007;28;20054;-79
2023/05/20 04:48:58;;;;;;;11.85;6.85;;;14.20;51.20;;;;;;4963981;28;20722;-78
2023/05/20 04:51:24;;;;;;;8.77;7.70;;;14.20;51.20;;;;;;4963007;28;20023;-79
2023/05/20 04:53:51;;;;;;;9.00;7.22;;;14.20;51.20;;;;;;4961400;28;20035;-82
2023/05/20 04:56:17;;;;;;;8.52;6.80;;;14.20;51.20;;;;;;4963465;28;20038;-79
2023/05/20 04:58:43;;;;;;;7.63;5.93;;;14.20;51.20;;;;;;4963767;28;20038;-79
2023/05/20 05:01:09;;;;;;;8.98;6.80;;;14.20;51.20;;;;;;4963345;28;20035;-79
2023/05/20 05:03:35;;;;;;;9.73;8.15;;;14.30;51.40;;;;;;4967900;28;20093;-79
2023/05/20 05:06:01;;;;;;;11.25;8.05;;;14.20;51.20;;;;;;4946467;28;20357;-80
2023/05/20 05:08:27;;;;;;;9.20;7.25;;;14.20;51.20;;;;;;4965745;28;20042;-78
2023/05/20 05:10:53;;;;;;;9.23;7.30;;;14.30;51.30;;;;;;4969231;28;20310;-81
2023/05/20 05:13:19;;;;;;;9.68;7.20;;;14.30;51.30;;;;;;4965860;28;20331;-80
2023/05/20 05:15:47;;;;;;;9.07;8.07;;;14.30;51.30;;;;;;4968476;28;20043;-81
2023/05/20 05:18:17;;;;;;;9.63;7.55;;;14.30;51.20;;;;;;4973729;28;20034;-82
2023/05/20 05:20:43;;;;;;;8.43;7.28;;;14.40;51.40;;;;;;4953646;28;20318;-80
2023/05/20 05:23:09;;;;;;;10.48;6.97;;;14.40;51.30;;;;;;4948219;28;20076;-92
2023/05/20 05:25:35;;;;;;;9.95;7.30;;;14.50;51.40;;;;;;4958117;28;20026;-81
2023/05/20 05:28:01;;;;;;;8.23;7.30;;;14.50;51.30;;;;;;4968041;28;20054;-83
2023/05/20 05:30:27;;;;;;;9.52;6.93;;;14.50;51.20;;;;;;4962694;28;20678;-86
2023/05/20 05:32:53;;;;;;;9.05;7.43;;;14.60;51.30;;;;;;4962160;28;20043;-84
2023/05/20 05:35:19;;;;;;;9.25;7.85;;;14.60;51.30;;;;;;4955775;28;20097;-82
2023/05/20 05:37:46;;;;;;;8.27;6.95;;;14.70;51.30;;;;;;4945465;28;20117;-80
2023/05/20 05:40:12;;;;;;;10.05;7.45;;;14.70;51.20;;;;;;4956071;28;20101;-78
2023/05/20 05:42:39;;;;;;;8.00;6.88;;;14.80;51.20;;;;;;4957177;28;20042;-83
2023/05/20 05:45:06;;;;;;;10.60;8.00;;;14.90;51.30;;;;;;4967207;28;20042;-85
2023/05/20 05:47:32;;;;;;;9.27;7.40;;;15.00;51.40;;;;;;4963595;28;20293;-84
2023/05/20 05:50:01;;;;;;;9.07;7.03;;;15.10;51.40;;;;;;4955644;28;20104;-87
2023/05/20 05:52:30;;;;;;;8.48;6.88;;;15.30;51.60;;;;;;4959652;28;20038;-85
2023/05/20 05:54:59;;;;;;;6.85;6.15;;;15.40;51.60;;;;;;4973288;28;20545;-82
2023/05/20 05:57:25;;;;;;;8.50;7.68;;;15.50;51.50;;;;;;4961294;28;20038;-84
2023/05/20 05:59:52;;;;;;;8.45;7.38;;;15.70;51.70;;;;;;4964120;28;20348;-81
2023/05/20 06:02:18;;;;;;;11.05;6.05;;;15.90;51.80;;;;;;4958650;28;20041;-85
2023/05/20 06:04:44;;;;;;;6.72;6.05;;;16.10;51.90;;;;;;4966333;28;20034;-89
2023/05/20 06:07:11;;;;;;;8.73;6.72;;;16.30;51.80;;;;;;4956899;28;20078;-88
2023/05/20 06:09:38;;;;;;;7.05;6.30;;;16.60;52.00;;;;;;4960050;28;20066;-85
2023/05/20 06:12:05;;;;;;;8.38;7.13;;;16.90;52.10;;;;;;4961678;28;20147;-84
2023/05/20 06:14:34;;;;;;;11.48;8.27;;;17.10;52.00;;;;;;4955929;28;20314;-84
2023/05/20 06:17:01;;;;;;;7.40;6.60;;;17.50;52.10;;;;;;4959191;28;20290;-84
2023/05/20 06:19:27;;;;;;;6.70;6.00;;;17.80;52.00;;;;;;4963634;28;20035;-83
2023/05/20 06:21:56;;;;;;;8.55;6.43;;;18.20;52.00;;;;;;4974398;28;20043;-84
2023/05/20 06:24:30;;;;;;;8.40;6.47;;;18.60;51.90;;;;;;4946576;28;20057;-83
2023/05/20 06:26:58;;;;;;;6.65;6.05;;;19.10;52.00;;;;;;4968589;28;20445;-80
2023/05/20 06:29:25;;;;;;;6.53;5.93;;;19.60;52.00;;;;;;4956585;28;20323;-78
2023/05/20 06:31:51;;;;;;;10.55;6.72;;;20.00;52.00;;;;;;4958583;28;20039;-82
2023/05/20 06:34:20;;;;;;;12.13;7.97;;;20.50;52.20;;;;;;4962387;28;20031;-84
2023/05/20 06:36:46;;;;;;;13.00;7.68;;;20.80;51.60;;;;;;4965103;28;20042;-81
2023/05/20 06:39:13;;;;;;;12.23;7.47;;;21.00;51.10;;;;;;4965666;28;20069;-81
2023/05/20 06:41:43;;;;;;;9.52;7.22;;;21.10;50.60;;;;;;4959915;28;20043;-81
2023/05/20 06:44:09;;;;;;;9.25;7.65;;;21.20;50.30;;;;;;4957129;28;20031;-82
2023/05/20 06:46:54;;;;;;;9.63;7.43;;;21.30;50.00;;;;;;4964172;28;20050;-82
2023/05/20 06:49:21;;;;;;;9.77;7.82;;;21.50;49.90;;;;;;4950363;28;20561;-84
2023/05/20 06:51:47;;;;;;;8.98;7.10;;;21.70;49.60;;;;;;4963970;28;20043;-90
2023/05/20 06:54:16;;;;;;;8.55;6.60;;;22.00;49.30;;;;;;4961535;28;20354;-82
2023/05/20 06:56:43;;;;;;;8.15;6.47;;;22.40;48.90;;;;;;4963479;28;20098;-83
2023/05/20 06:59:10;;;;;;;9.85;6.97;;;22.80;48.60;;;;;;4965148;28;20042;-79
2023/05/20 07:01:37;;;;;;;9.27;7.38;;;23.20;48.30;;;;;;4975172;28;20174;-79
2023/05/20 07:04:06;;;;;;;8.15;6.47;;;23.50;47.70;;;;;;4947667;28;20042;-80
2023/05/20 07:06:33;;;;;;;9.52;7.28;;;23.80;47.40;;;;;;4962492;28;20489;-78
2023/05/20 07:08:59;;;;;;;9.20;7.60;;;24.00;46.90;;;;;;4970514;28;20057;-78
2023/05/20 07:11:26;;;;;;;8.95;7.32;;;24.20;46.40;;;;;;4968519;28;20478;-78
2023/05/20 07:13:59;;;;;;;10.27;8.18;;;24.40;45.90;;;;;;4979536;28;20042;-77
2023/05/20 07:16:31;;;;;;;10.75;7.60;;;24.70;45.80;;;;;;4961894;28;20524;-78
2023/05/20 07:18:57;;;;;;;11.90;7.63;;;24.80;45.50;;;;;;4975092;28;20041;-78
2023/05/20 07:21:27;;;;;;;9.02;6.82;;;24.90;45.30;;;;;;4959449;28;20360;-78
2023/05/20 07:24:11;;;;;;;10.55;6.97;;;25.10;45.20;;;;;;4962744;28;20442;-80
2023/05/20 07:26:38;;;;;;;9.80;6.88;;;25.30;44.90;;;;;;4986183;28;20038;-79
2023/05/20 07:29:05;;;;;;;9.88;7.10;;;25.40;44.60;;;;;;4964376;28;20031;-79
2023/05/20 07:31:35;;;;;;;10.60;6.75;;;25.40;44.70;;;;;;4960757;28;20038;-79
2023/05/20 07:34:01;;;;;;;9.13;6.80;;;25.30;44.80;;;;;;4957262;28;20118;-79
2023/05/20 07:36:27;;;;;;;8.00;6.13;;;25.20;44.80;;;;;;4958532;28;20038;-78
2023/05/20 07:38:54;;;;;;;8.30;5.93;;;25.10;44.80;;;;;;4960162;28;20034;-78
2023/05/20 07:41:21;;;;;;;7.07;6.28;;;25.30;44.60;;;;;;4960019;28;20085;-77
2023/05/20 07:43:48;;;;;;;9.57;6.65;;;25.70;43.80;;;;;;4954500;28;20121;-78
2023/05/20 07:46:15;;;;;;;9.70;6.72;;;26.10;43.00;;;;;;4959483;28;20055;-77
2023/05/20 07:48:42;;;;;;;7.22;5.32;;;26.30;42.30;;;;;;4952840;28;20047;-77
2023/05/20 07:51:08;;;;;;;9.23;5.80;;;26.40;42.00;;;;;;4959114;28;20525;-77
2023/05/20 07:53:37;;;;;;;6.25;4.93;;;26.50;42.00;;;;;;4955855;28;20086;-77
2023/05/20 07:56:03;;;;;;;5.55;5.03;;;26.50;42.00;;;;;;4949780;28;20028;-78
2023/05/20 07:58:30;;;;;;;8.70;5.72;;;26.50;42.10;;;;;;4955459;28;20390;-82
2023/05/20 08:00:59;;;;;;;7.55;5.07;;;26.60;42.10;;;;;;4957527;28;20458;-81
2023/05/20 08:03:26;;;;;;;6.50;5.25;;;26.60;42.10;;;;;;4962942;28;20137;-82
2023/05/20 08:06:04;;;;;;;7.15;4.38;;;26.60;42.00;;;;;;4976682;28;20426;-87
2023/05/20 08:08:31;;;;;;;8.30;5.18;;;26.60;42.00;;;;;;4969228;28;20046;-82
2023/05/20 08:11:03;;;;;;;5.40;4.88;;;26.50;42.10;;;;;;4957541;28;20609;-83
2023/05/20 08:13:33;;;;;;;9.35;5.90;;;26.30;42.40;;;;;;4956812;28;20530;-81
2023/05/20 08:16:02;;;;;;;6.28;4.43;;;26.10;42.70;;;;;;4971408;28;20030;-83
2023/05/20 08:18:29;;;;;;;10.35;5.10;;;26.00;42.80;;;;;;4971229;28;20094;-80
2023/05/20 08:20:58;;;;;;;5.90;4.55;;;25.80;43.00;;;;;;4955211;28;20509;-77
2023/05/20 08:23:25;;;;;;;8.32;5.13;;;25.70;43.10;;;;;;4948891;28;20073;-78
2023/05/20 08:25:56;;;;;;;9.40;5.47;;;25.60;43.20;;;;;;4970374;28;20512;-78
2023/05/20 08:28:24;;;;;;;8.00;4.88;;;25.40;43.20;;;;;;4963141;28;20150;-77
2023/05/20 08:30:50;;;;;;;6.00;5.40;;;25.30;43.20;;;;;;4962404;28;20042;-77
2023/05/20 08:33:18;;;;;;;6.88;5.03;;;25.20;43.10;;;;;;4965421;28;20333;-78
2023/05/20 08:35:45;;;;;;;6.70;4.90;;;25.20;43.20;;;;;;4957033;28;20390;-78
2023/05/20 08:38:11;;;;;;;8.43;4.90;;;25.10;43.20;;;;;;4959708;28;20571;-79
2023/05/20 08:40:37;;;;;;;6.50;5.05;;;25.10;43.20;;;;;;4974480;28;20038;-79
2023/05/20 08:43:04;;;;;;;5.88;5.10;;;25.00;43.10;;;;;;4981520;28;20409;-78
2023/05/20 08:45:32;;;;;;;5.20;4.65;;;25.00;43.10;;;;;;4966475;28;20453;-77
2023/05/20 08:48:04;;;;;;;7.05;5.00;;;25.00;43.10;;;;;;4959741;28;20054;-78
2023/05/20 08:50:30;;;;;;;7.70;4.35;;;24.90;42.90;;;;;;4969610;28;20041;-77
2023/05/20 08:52:58;;;;;;;8.02;4.85;;;24.90;42.80;;;;;;4961762;28;20047;-76
2023/05/20 08:55:32;;;;;;;7.50;4.53;;;24.90;42.80;;;;;;4951559;28;20058;-79
2023/05/20 08:57:58;;;;;;;7.32;5.22;;;24.90;42.70;;;;;;4965844;28;20398;-77
2023/05/20 09:00:33;;;;;;;7.07;5.47;;;25.00;42.80;;;;;;5052134;28;20969;-67
2023/05/20 09:03:00;;;;;;;5.60;5.00;;;25.00;42.70;;;;;;5054294;28;20131;-67
2023/05/20 09:05:27;;;;;;;6.65;4.53;;;25.00;42.60;;;;;;5047615;28;20487;-69
2023/05/20 09:08:05;;;;;;;6.78;5.07;;;25.00;42.60;;;;;;5043704;28;20058;-69
2023/05/20 09:10:32;;;;;;;8.00;4.78;;;25.10;42.50;;;;;;5023252;28;20072;-68
2023/05/20 09:13:01;;;;;;;6.90;4.82;;;25.10;42.50;;;;;;5038989;28;20534;-70
2023/05/20 09:15:28;;;;;;;9.07;5.32;;;25.10;42.50;;;;;;5052664;28;20481;-69
2023/05/20 09:17:54;;;;;;;9.35;5.63;;;25.20;42.50;;;;;;5055340;28;20052;-70
2023/05/20 09:20:40;;;;;;;5.20;4.70;;;25.30;42.50;;;;;;5034448;28;20060;-68
2023/05/20 09:23:09;;;;;;;5.38;4.85;;;25.30;42.40;;;;;;5043651;28;20145;-67
2023/05/20 09:25:38;;;;;;;4.88;4.25;;;25.40;42.40;;;;;;5048720;28;20056;-68
2023/05/20 09:28:06;;;;;;;4.53;3.80;;;25.50;42.30;;;;;;5043591;28;20794;-68
2023/05/20 09:30:32;;;;;;;5.75;4.97;;;25.50;42.10;;;;;;5055917;28;20099;-67
2023/05/20 09:33:04;;;;;;;6.43;4.60;;;25.50;42.00;;;;;;5052257;28;20067;-67
2023/05/20 09:35:30;;;;;;;7.80;4.90;;;25.60;41.90;;;;;;5032081;28;20094;-68
2023/05/20 09:37:57;;;;;;;5.72;4.88;;;25.60;41.80;;;;;;5049795;28;20043;-67
2023/05/20 09:40:26;;;;;;;7.65;4.78;;;25.70;41.70;;;;;;5052176;28;20155;-68
2023/05/20 09:43:02;;;;;;;6.10;4.78;;;25.70;41.60;;;;;;5049468;28;20191;-67
2023/05/20 09:45:29;;;;;;;6.63;4.55;;;25.80;41.50;;;;;;5042051;28;20120;-69
2023/05/20 09:47:56;;;;;;;5.57;4.22;;;25.80;41.60;;;;;;5050638;28;20052;-67
2023/05/20 09:50:23;;;;;;;5.80;4.70;;;25.90;41.50;;;;;;5040540;28;20048;-69
2023/05/20 09:52:53;;;;;;;6.60;3.72;;;25.80;41.40;;;;;;5045625;28;20043;-68
2023/05/20 09:55:22;;;;;;;6.07;4.75;;;25.90;41.30;;;;;;5042693;28;20040;-67
2023/05/20 09:57:48;;;;;;;5.55;3.80;;;26.00;41.20;;;;;;5041828;28;20040;-68
2023/05/20 10:00:18;;;;;;;8.82;3.65;;;26.00;41.10;;;;;;5055489;28;20048;-68
2023/05/20 10:03:00;;;;;;;5.75;4.38;;;26.00;41.00;;;;;;5050167;28;20635;-69
2023/05/20 10:05:35;;;;;;;3.53;3.22;;;26.10;41.00;;;;;;5052792;28;20058;-69
2023/05/20 10:08:20;;;;;;;5.13;3.23;;;26.10;40.90;;;;;;5042296;28;20438;-67
2023/05/20 10:11:23;;;;;;;5.88;3.85;;;26.10;40.80;;;;;;5030948;28;20293;-67
2023/05/20 10:14:25;;;;;;;6.13;4.38;;;26.20;40.60;;;;;;5007718;28;20047;-67
2023/05/20 10:17:20;;;;;;;5.95;3.92;;;26.20;40.50;;;;;;5030254;28;20053;-69
2023/05/20 10:19:49;;;;;;;4.90;3.55;;;26.30;40.70;;;;;;5000894;28;20088;-68
2023/05/20 10:22:29;;;;;;;7.88;4.50;;;26.30;40.50;;;;;;5025558;28;20037;-68
2023/05/20 10:25:00;;;;;;;5.20;4.38;;;26.40;40.40;;;;;;5025536;28;20112;-70
2023/05/20 10:27:26;;;;;;;5.18;4.30;;;26.40;40.30;;;;;;5028512;28;20475;-70
2023/05/20 10:29:53;;;;;;;5.43;4.30;;;26.50;40.30;;;;;;5029852;28;20132;-69
2023/05/20 10:32:55;;;;;;;6.35;4.20;;;26.50;40.10;;;;;;5032899;28;20028;-69
2023/05/20 10:35:25;;;;;;;6.68;4.68;;;26.50;39.80;;;;;;5033324;28;20032;-72
2023/05/20 10:38:11;;;;;;;7.28;4.55;;;26.50;39.80;;;;;;5026683;28;20084;-67
2023/05/20 10:40:44;;;;;;;5.70;4.10;;;26.40;39.60;;;;;;5017483;28;20111;-70
2023/05/20 10:43:15;;;;;;;5.85;4.40;;;26.40;39.80;;;;;;5021041;28;20113;-70
2023/05/20 10:45:53;;;;;;;5.45;4.78;;;26.50;39.90;;;;;;5029352;28;20093;-71
2023/05/20 10:48:27;;;;;;;7.70;5.00;;;26.50;39.90;;;;;;5023598;28;20046;-70
2023/05/20 10:51:04;;;;;;;11.65;6.15;;;26.60;39.90;;;;;;5018846;28;20498;-72
2023/05/20 10:53:38;;;;;;;14.90;7.53;;;26.70;39.90;;;;;;5026805;28;20049;-72
2023/05/20 10:56:15;;;;;;;21.92;8.52;;;26.80;40.00;;;;;;5030747;28;20048;-70
2023/05/20 10:58:41;;;;;;;16.77;7.95;;;26.80;40.00;;;;;;5034143;28;20060;-70
2023/05/20 11:01:09;;;;;;;14.38;7.50;;;26.90;40.10;;;;;;5029997;28;20060;-71
2023/05/20 11:03:36;;;;;;;18.05;7.82;;;27.10;40.40;;;;;;5025686;28;20033;-71
2023/05/20 11:06:13;;;;;;;16.80;8.10;;;27.20;40.60;;;;;;5034803;28;20041;-73
2023/05/20 11:08:40;;;;;;;12.90;8.02;;;27.20;40.80;;;;;;5025045;28;20035;-71
2023/05/20 11:11:06;;;;;;;17.98;10.35;;;27.40;41.00;;;;;;5035718;28;20509;-71
2023/05/20 11:13:35;;;;;;;15.40;8.90;;;27.50;41.20;;;;;;5023574;28;20349;-67
2023/05/20 11:16:04;;;;;;;13.50;8.43;;;27.60;41.20;;;;;;5030121;28;20037;-72
2023/05/20 11:18:31;;;;;;;15.50;8.38;;;27.60;41.10;;;;;;5028703;28;20037;-73
2023/05/20 11:21:01;;;;;;;10.77;6.60;;;27.70;41.00;;;;;;5029236;28;20792;-70
2023/05/20 11:23:28;;;;;;;9.90;6.97;;;27.80;40.80;;;;;;5030468;28;20035;-69
2023/05/20 11:25:56;;;;;;;13.63;7.15;;;27.80;40.60;;;;;;5024529;28;20182;-72
2023/05/20 11:28:22;;;;;;;11.57;6.65;;;27.90;40.50;;;;;;5031238;28;20060;-71
2023/05/20 11:30:51;;;;;;;8.50;6.35;;;27.90;40.30;;;;;;5031351;28;20073;-70
2023/05/20 11:33:17;;;;;;;10.85;6.22;;;28.00;40.20;;;;;;5028998;28;20065;-67
2023/05/20 11:35:51;;;;;;;9.25;5.95;;;28.10;40.10;;;;;;5032155;28;20417;-70
2023/05/20 11:38:21;;;;;;;10.30;6.65;;;28.10;39.90;;;;;;5022356;28;20040;-70
2023/05/20 11:40:52;;;;;;;11.32;6.82;;;28.20;40.00;;;;;;5020650;28;20033;-68
2023/05/20 11:43:23;;;;;;;6.85;5.43;;;28.20;40.00;;;;;;5021881;28;20045;-69
2023/05/20 11:45:55;;;;;;;6.55;5.80;;;28.30;40.10;;;;;;5027690;28;20525;-71
2023/05/20 11:48:23;;;;;;;7.28;5.05;;;28.30;39.90;;;;;;5036096;28;20076;-69
2023/05/20 11:50:54;;;;;;;;;;;28.40;39.70;;;;;;5021715;28;20049;-69
2023/05/20 11:53:22;;;;;;;10.10;4.97;;;28.50;39.70;;;;;;5023852;28;19959;-69
2023/05/20 11:55:50;;;;;;;6.72;4.75;;;28.50;39.60;;;;;;5027603;28;20547;-69
2023/05/20 11:58:18;;;;;;;6.70;4.40;;;28.60;39.30;;;;;;5029000;28;20290;-70
2023/05/20 12:00:45;;;;;;;4.38;3.97;;;28.60;39.00;;;;;;5021940;28;20037;-69
2023/05/20 12:03:15;;;;;;;4.82;4.20;;;28.70;38.80;;;;;;5022542;28;20151;-72
2023/05/20 12:05:41;;;;;;;6.93;4.30;;;28.80;38.60;;;;;;5009066;28;20525;-66
2023/05/20 12:08:08;;;;;;;7.05;4.10;;;28.80;38.40;;;;;;5026217;28;20597;-70
2023/05/20 12:10:37;;;;;;;7.15;4.50;;;28.90;38.40;;;;;;5022017;28;20033;-71
2023/05/20 12:13:07;;;;;;;6.53;4.35;;;29.00;38.50;;;;;;5020126;28;20089;-75
2023/05/20 12:15:40;;;;;;;7.78;5.03;;;28.90;38.50;;;;;;5022395;28;20037;-73
2023/05/20 12:18:12;;;;;;;7.50;4.28;;;29.00;38.40;;;;;;5005001;28;20155;-70
2023/05/20 12:20:42;;;;;;;6.22;3.90;;;29.00;38.50;;;;;;5023395;28;20033;-73
2023/05/20 12:23:08;;;;;;;6.65;4.47;;;29.10;38.50;;;;;;5025586;28;20444;-74
2023/05/20 12:25:39;;;;;;;6.35;4.20;;;29.20;38.40;;;;;;5022052;28;20037;-73
2023/05/20 12:28:06;;;;;;;5.50;4.25;;;29.20;38.30;;;;;;5028722;28;20028;-75
2023/05/20 12:30:33;;;;;;;5.28;3.85;;;29.20;38.20;;;;;;5014304;28;20427;-71
2023/05/20 12:33:05;;;;;;;6.37;3.67;;;29.20;38.20;;;;;;5024688;28;20439;-72
2023/05/20 12:35:39;;;;;;;5.72;4.03;;;29.30;38.20;;;;;;5032186;28;20037;-74
2023/05/20 12:38:09;;;;;;;6.53;4.18;;;29.30;38.00;;;;;;5021297;28;20569;-69
2023/05/20 12:40:35;;;;;;;6.40;4.07;;;29.30;37.90;;;;;;5008589;28;20401;-68
2023/05/20 12:43:03;;;;;;;5.38;3.97;;;29.40;37.90;;;;;;5027404;28;20079;-69
2023/05/20 12:45:30;;;;;;;6.05;4.47;;;29.40;37.70;;;;;;5016907;28;20392;-69
2023/05/20 12:47:56;;;;;;;6.10;4.03;;;29.50;37.70;;;;;;5021409;28;20827;-70
2023/05/20 12:50:24;;;;;;;5.93;4.28;;;29.60;37.60;;;;;;5033799;28;20036;-68
2023/05/20 12:53:10;;;;;;;6.93;3.90;;;29.70;37.50;;;;;;5007919;28;20375;-70